sensor_id;sensor_type;location;lat;lon;timestamp;P1;durP1;ratioP1;P2;durP2;ratioP2
28862;SDS011;15994;51.796;13.006;2023-03-15T00:01:10;14.20;;;2.00;;
28862;SDS011;15994;51.796;13.006;2023-03-15T00:03:40;13.98;;;2.05;;
28862;SDS011;15994;51.796;13.006;2023-03-15T00:06:08;12.27;;;1.90;;
28862;SDS011;15994;51.796;13.006;2023-03-15T00:08:34;12.23;;;1.80;;
28862;SDS011;15994;51.796;13.006;2023-03-15T00:11:01;21.48;;;2.28;;
28862;SDS011;15994;51.796;13.006;2023-03-15T00:13:28;20.88;;;2.15;;
28862;SDS011;15994;51.796;13.006;2023-03-15T00:15:56;9.27;;;1.50;;
28862;SDS011;15994;51.796;13.006;2023-03-15T00:18:24;19.00;;;2.30;;
28862;SDS011;15994;51.796;13.006;2023-03-15T00:20:53;14.75;;;2.17;;
28862;SDS011;15994;51.796;13.006;2023-03-15T00:23:19;16.27;;;2.65;;
28862;SDS011;15994;51.796;13.006;2023-03-15T00:25:46;15.35;;;2.08;;
28862;SDS011;15994;51.796;13.006;2023-03-15T00:28:14;13.60;;;2.00;;
28862;SDS011;15994;51.796;13.006;2023-03-15T00:30:41;14.23;;;1.90;;
28862;SDS011;15994;51.796;13.006;2023-03-15T00:33:08;10.65;;;1.85;;
28862;SDS011;15994;51.796;13.006;2023-03-15T00:35:38;20.38;;;2.33;;
28862;SDS011;15994;51.796;13.006;2023-03-15T00:38:06;13.35;;;2.47;;
28862;SDS011;15994;51.796;13.006;2023-03-15T00:40:34;11.75;;;2.17;;
28862;SDS011;15994;51.796;13.006;2023-03-15T00:43:01;21.00;;;2.33;;
28862;SDS011;15994;51.796;13.006;2023-03-15T00:45:28;23.63;;;2.88;;
28862;SDS011;15994;51.796;13.006;2023-03-15T00:47:54;10.90;;;2.17;;
28862;SDS011;15994;51.796;13.006;2023-03-15T00:50:21;11.13;;;2.67;;
28862;SDS011;15994;51.796;13.006;2023-03-15T00:52:48;13.27;;;2.33;;
28862;SDS011;15994;51.796;13.006;2023-03-15T00:55:17;17.65;;;2.35;;
28862;SDS011;15994;51.796;13.006;2023-03-15T00:57:45;13.55;;;2.03;;
28862;SDS011;15994;51.796;13.006;2023-03-15T01:00:17;13.68;;;2.35;;
28862;SDS011;15994;51.796;13.006;2023-03-15T01:05:14;15.93;;;2.40;;
28862;SDS011;15994;51.796;13.006;2023-03-15T01:07:41;17.48;;;2.42;;
28862;SDS011;15994;51.796;13.006;2023-03-15T01:10:10;15.00;;;2.40;;
28862;SDS011;15994;51.796;13.006;2023-03-15T01:12:37;12.63;;;2.42;;
28862;SDS011;15994;51.796;13.006;2023-03-15T01:15:04;15.40;;;2.30;;
28862;SDS011;15994;51.796;13.006;2023-03-15T01:17:32;19.15;;;2.95;;
28862;SDS011;15994;51.796;13.006;2023-03-15T01:19:59;13.98;;;2.00;;
28862;SDS011;15994;51.796;13.006;2023-03-15T01:22:25;16.15;;;2.50;;
28862;SDS011;15994;51.796;13.006;2023-03-15T01:24:52;13.25;;;2.38;;
28862;SDS011;15994;51.796;13.006;2023-03-15T01:27:19;12.65;;;2.20;;
28862;SDS011;15994;51.796;13.006;2023-03-15T01:29:45;10.60;;;2.22;;
28862;SDS011;15994;51.796;13.006;2023-03-15T01:32:12;12.77;;;2.45;;
28862;SDS011;15994;51.796;13.006;2023-03-15T01:34:38;12.07;;;2.50;;
28862;SDS011;15994;51.796;13.006;2023-03-15T01:37:07;14.30;;;2.67;;
28862;SDS011;15994;51.796;13.006;2023-03-15T01:39:34;14.80;;;2.13;;
28862;SDS011;15994;51.796;13.006;2023-03-15T01:42:00;11.98;;;2.22;;
28862;SDS011;15994;51.796;13.006;2023-03-15T01:44:46;15.02;;;2.20;;
28862;SDS011;15994;51.796;13.006;2023-03-15T01:47:24;15.43;;;2.22;;
28862;SDS011;15994;51.796;13.006;2023-03-15T01:49:53;9.45;;;2.10;;
28862;SDS011;15994;51.796;13.006;2023-03-15T01:52:30;9.90;;;1.92;;
28862;SDS011;15994;51.796;13.006;2023-03-15T01:54:59;14.88;;;2.30;;
28862;SDS011;15994;51.796;13.006;2023-03-15T01:57:36;10.88;;;2.20;;
28862;SDS011;15994;51.796;13.006;2023-03-15T02:00:08;16.38;;;1.83;;
28862;SDS011;15994;51.796;13.006;2023-03-15T02:02:43;10.38;;;2.00;;
28862;SDS011;15994;51.796;13.006;2023-03-15T02:05:19;12.60;;;2.20;;
28862;SDS011;15994;51.796;13.006;2023-03-15T02:07:49;11.02;;;2.03;;
28862;SDS011;15994;51.796;13.006;2023-03-15T02:10:26;13.95;;;2.03;;
28862;SDS011;15994;51.796;13.006;2023-03-15T02:13:05;12.25;;;2.25;;
28862;SDS011;15994;51.796;13.006;2023-03-15T02:15:33;15.60;;;2.30;;
28862;SDS011;15994;51.796;13.006;2023-03-15T02:17:59;12.82;;;2.40;;
28862;SDS011;15994;51.796;13.006;2023-03-15T02:23:07;12.98;;;2.08;;
28862;SDS011;15994;51.796;13.006;2023-03-15T02:28:06;10.13;;;2.13;;
28862;SDS011;15994;51.796;13.006;2023-03-15T02:30:35;11.40;;;1.80;;
28862;SDS011;15994;51.796;13.006;2023-03-15T02:33:01;19.05;;;2.50;;
28862;SDS011;15994;51.796;13.006;2023-03-15T02:35:32;14.50;;;2.47;;
28862;SDS011;15994;51.796;13.006;2023-03-15T02:40:56;14.35;;;2.70;;
28862;SDS011;15994;51.796;13.006;2023-03-15T02:43:24;14.18;;;2.28;;
28862;SDS011;15994;51.796;13.006;2023-03-15T02:45:55;14.82;;;2.30;;
28862;SDS011;15994;51.796;13.006;2023-03-15T02:48:22;17.48;;;2.40;;
28862;SDS011;15994;51.796;13.006;2023-03-15T02:50:49;18.00;;;2.70;;
28862;SDS011;15994;51.796;13.006;2023-03-15T02:53:16;16.27;;;2.17;;
28862;SDS011;15994;51.796;13.006;2023-03-15T02:55:42;15.32;;;2.47;;
28862;SDS011;15994;51.796;13.006;2023-03-15T02:58:09;13.15;;;2.30;;
28862;SDS011;15994;51.796;13.006;2023-03-15T03:00:35;10.25;;;2.00;;
28862;SDS011;15994;51.796;13.006;2023-03-15T03:03:02;14.52;;;2.17;;
28862;SDS011;15994;51.796;13.006;2023-03-15T03:05:28;12.52;;;2.08;;
28862;SDS011;15994;51.796;13.006;2023-03-15T03:07:55;11.38;;;1.73;;
28862;SDS011;15994;51.796;13.006;2023-03-15T03:10:22;13.10;;;2.13;;
28862;SDS011;15994;51.796;13.006;2023-03-15T03:12:49;10.35;;;2.00;;
28862;SDS011;15994;51.796;13.006;2023-03-15T03:15:17;10.27;;;1.70;;
28862;SDS011;15994;51.796;13.006;2023-03-15T03:17:44;14.55;;;2.10;;
28862;SDS011;15994;51.796;13.006;2023-03-15T03:20:11;19.50;;;2.00;;
28862;SDS011;15994;51.796;13.006;2023-03-15T03:22:39;12.45;;;2.13;;
28862;SDS011;15994;51.796;13.006;2023-03-15T03:25:08;17.42;;;2.10;;
28862;SDS011;15994;51.796;13.006;2023-03-15T03:27:36;15.05;;;2.05;;
28862;SDS011;15994;51.796;13.006;2023-03-15T03:30:06;11.15;;;2.10;;
28862;SDS011;15994;51.796;13.006;2023-03-15T03:32:36;16.75;;;2.15;;
28862;SDS011;15994;51.796;13.006;2023-03-15T03:35:04;14.68;;;2.17;;
28862;SDS011;15994;51.796;13.006;2023-03-15T03:37:31;16.65;;;2.42;;
28862;SDS011;15994;51.796;13.006;2023-03-15T03:39:59;12.32;;;2.28;;
28862;SDS011;15994;51.796;13.006;2023-03-15T03:42:26;15.18;;;2.50;;
28862;SDS011;15994;51.796;13.006;2023-03-15T03:44:52;9.82;;;1.88;;
28862;SDS011;15994;51.796;13.006;2023-03-15T03:47:19;13.65;;;1.95;;
28862;SDS011;15994;51.796;13.006;2023-03-15T03:49:46;12.23;;;2.83;;
28862;SDS011;15994;51.796;13.006;2023-03-15T03:52:12;15.63;;;2.15;;
28862;SDS011;15994;51.796;13.006;2023-03-15T03:54:39;14.35;;;1.85;;
28862;SDS011;15994;51.796;13.006;2023-03-15T03:57:06;12.25;;;1.80;;
28862;SDS011;15994;51.796;13.006;2023-03-15T03:59:33;12.25;;;2.20;;
28862;SDS011;15994;51.796;13.006;2023-03-15T04:01:59;13.07;;;2.17;;
28862;SDS011;15994;51.796;13.006;2023-03-15T04:04:26;14.75;;;2.00;;
28862;SDS011;15994;51.796;13.006;2023-03-15T04:06:53;13.98;;;2.03;;
28862;SDS011;15994;51.796;13.006;2023-03-15T04:09:19;9.38;;;1.80;;
28862;SDS011;15994;51.796;13.006;2023-03-15T04:11:48;12.88;;;2.22;;
28862;SDS011;15994;51.796;13.006;2023-03-15T04:14:15;12.18;;;2.20;;
28862;SDS011;15994;51.796;13.006;2023-03-15T04:16:41;15.35;;;2.28;;
28862;SDS011;15994;51.796;13.006;2023-03-15T04:19:08;12.82;;;1.95;;
28862;SDS011;15994;51.796;13.006;2023-03-15T04:21:36;15.00;;;2.17;;
28862;SDS011;15994;51.796;13.006;2023-03-15T04:24:03;10.70;;;1.98;;
28862;SDS011;15994;51.796;13.006;2023-03-15T04:26:31;12.15;;;2.10;;
28862;SDS011;15994;51.796;13.006;2023-03-15T04:28:58;13.52;;;1.77;;
28862;SDS011;15994;51.796;13.006;2023-03-15T04:31:24;15.55;;;2.10;;
28862;SDS011;15994;51.796;13.006;2023-03-15T04:33:55;15.57;;;1.85;;
28862;SDS011;15994;51.796;13.006;2023-03-15T04:36:21;20.75;;;2.35;;
28862;SDS011;15994;51.796;13.006;2023-03-15T04:38:48;9.90;;;1.52;;
28862;SDS011;15994;51.796;13.006;2023-03-15T04:41:15;15.02;;;2.05;;
28862;SDS011;15994;51.796;13.006;2023-03-15T04:43:43;16.45;;;2.05;;
28862;SDS011;15994;51.796;13.006;2023-03-15T04:46:10;13.50;;;1.80;;
28862;SDS011;15994;51.796;13.006;2023-03-15T04:48:36;15.05;;;2.05;;
28862;SDS011;15994;51.796;13.006;2023-03-15T04:51:03;14.25;;;1.98;;
28862;SDS011;15994;51.796;13.006;2023-03-15T04:53:29;12.20;;;1.88;;
28862;SDS011;15994;51.796;13.006;2023-03-15T04:55:56;7.72;;;1.65;;
28862;SDS011;15994;51.796;13.006;2023-03-15T04:58:23;11.98;;;2.35;;
28862;SDS011;15994;51.796;13.006;2023-03-15T05:00:51;11.15;;;2.00;;
28862;SDS011;15994;51.796;13.006;2023-03-15T05:03:18;14.23;;;2.20;;
28862;SDS011;15994;51.796;13.006;2023-03-15T05:05:45;14.20;;;1.73;;
28862;SDS011;15994;51.796;13.006;2023-03-15T05:08:12;15.38;;;2.40;;
28862;SDS011;15994;51.796;13.006;2023-03-15T05:10:38;15.07;;;2.58;;
28862;SDS011;15994;51.796;13.006;2023-03-15T05:13:05;11.77;;;2.10;;
28862;SDS011;15994;51.796;13.006;2023-03-15T05:15:31;14.32;;;2.03;;
28862;SDS011;15994;51.796;13.006;2023-03-15T05:17:58;12.85;;;2.20;;
28862;SDS011;15994;51.796;13.006;2023-03-15T05:20:24;14.02;;;2.83;;
28862;SDS011;15994;51.796;13.006;2023-03-15T05:22:51;14.77;;;2.00;;
28862;SDS011;15994;51.796;13.006;2023-03-15T05:25:18;15.32;;;2.72;;
28862;SDS011;15994;51.796;13.006;2023-03-15T05:27:44;13.48;;;2.05;;
28862;SDS011;15994;51.796;13.006;2023-03-15T05:30:11;11.85;;;2.08;;
28862;SDS011;15994;51.796;13.006;2023-03-15T05:32:39;15.98;;;2.05;;
28862;SDS011;15994;51.796;13.006;2023-03-15T05:35:08;13.80;;;2.30;;
28862;SDS011;15994;51.796;13.006;2023-03-15T05:37:36;18.60;;;3.05;;
28862;SDS011;15994;51.796;13.006;2023-03-15T05:40:03;10.38;;;2.00;;
28862;SDS011;15994;51.796;13.006;2023-03-15T05:42:32;14.20;;;2.30;;
28862;SDS011;15994;51.796;13.006;2023-03-15T05:44:59;12.57;;;1.95;;
28862;SDS011;15994;51.796;13.006;2023-03-15T05:47:25;12.57;;;2.45;;
28862;SDS011;15994;51.796;13.006;2023-03-15T05:49:52;12.45;;;2.25;;
28862;SDS011;15994;51.796;13.006;2023-03-15T05:52:18;17.23;;;2.67;;
28862;SDS011;15994;51.796;13.006;2023-03-15T05:54:45;10.55;;;1.88;;
28862;SDS011;15994;51.796;13.006;2023-03-15T05:57:11;11.48;;;2.25;;
28862;SDS011;15994;51.796;13.006;2023-03-15T05:59:38;11.07;;;2.10;;
28862;SDS011;15994;51.796;13.006;2023-03-15T06:02:05;12.20;;;2.20;;
28862;SDS011;15994;51.796;13.006;2023-03-15T06:04:31;15.63;;;2.65;;
28862;SDS011;15994;51.796;13.006;2023-03-15T06:06:58;8.50;;;2.28;;
28862;SDS011;15994;51.796;13.006;2023-03-15T06:09:24;12.70;;;1.92;;
28862;SDS011;15994;51.796;13.006;2023-03-15T06:11:51;10.02;;;1.77;;
28862;SDS011;15994;51.796;13.006;2023-03-15T06:14:17;19.60;;;2.45;;
28862;SDS011;15994;51.796;13.006;2023-03-15T06:16:44;10.45;;;2.30;;
28862;SDS011;15994;51.796;13.006;2023-03-15T06:19:10;9.60;;;1.83;;
28862;SDS011;15994;51.796;13.006;2023-03-15T06:21:37;9.70;;;2.22;;
28862;SDS011;15994;51.796;13.006;2023-03-15T06:24:04;13.10;;;2.15;;
28862;SDS011;15994;51.796;13.006;2023-03-15T06:26:31;9.90;;;2.17;;
28862;SDS011;15994;51.796;13.006;2023-03-15T06:28:57;14.00;;;2.28;;
28862;SDS011;15994;51.796;13.006;2023-03-15T06:31:24;11.95;;;2.20;;
28862;SDS011;15994;51.796;13.006;2023-03-15T06:33:50;13.60;;;2.15;;
28862;SDS011;15994;51.796;13.006;2023-03-15T06:36:17;12.10;;;2.25;;
28862;SDS011;15994;51.796;13.006;2023-03-15T06:38:43;16.92;;;2.08;;
28862;SDS011;15994;51.796;13.006;2023-03-15T06:41:10;15.85;;;2.95;;
28862;SDS011;15994;51.796;13.006;2023-03-15T06:43:39;11.20;;;2.28;;
28862;SDS011;15994;51.796;13.006;2023-03-15T06:46:06;14.35;;;2.55;;
28862;SDS011;15994;51.796;13.006;2023-03-15T06:48:32;12.05;;;2.10;;
28862;SDS011;15994;51.796;13.006;2023-03-15T06:50:59;15.95;;;2.55;;
28862;SDS011;15994;51.796;13.006;2023-03-15T06:53:25;15.98;;;2.63;;
28862;SDS011;15994;51.796;13.006;2023-03-15T06:55:52;13.65;;;2.42;;
28862;SDS011;15994;51.796;13.006;2023-03-15T06:58:18;13.23;;;2.40;;
28862;SDS011;15994;51.796;13.006;2023-03-15T07:00:45;16.05;;;2.55;;
28862;SDS011;15994;51.796;13.006;2023-03-15T07:03:12;16.90;;;2.45;;
28862;SDS011;15994;51.796;13.006;2023-03-15T07:05:39;14.88;;;2.25;;
28862;SDS011;15994;51.796;13.006;2023-03-15T07:08:05;18.08;;;3.20;;
28862;SDS011;15994;51.796;13.006;2023-03-15T07:10:32;16.98;;;2.63;;
28862;SDS011;15994;51.796;13.006;2023-03-15T07:12:59;16.80;;;2.55;;
28862;SDS011;15994;51.796;13.006;2023-03-15T07:15:25;16.23;;;2.47;;
28862;SDS011;15994;51.796;13.006;2023-03-15T07:17:52;15.77;;;2.65;;
28862;SDS011;15994;51.796;13.006;2023-03-15T07:20:18;21.38;;;3.47;;
28862;SDS011;15994;51.796;13.006;2023-03-15T07:22:45;20.30;;;2.65;;
28862;SDS011;15994;51.796;13.006;2023-03-15T07:25:11;14.45;;;3.10;;
28862;SDS011;15994;51.796;13.006;2023-03-15T07:27:38;14.40;;;2.50;;
28862;SDS011;15994;51.796;13.006;2023-03-15T07:30:04;15.68;;;2.53;;
28862;SDS011;15994;51.796;13.006;2023-03-15T07:32:33;20.20;;;2.63;;
28862;SDS011;15994;51.796;13.006;2023-03-15T07:35:00;12.20;;;2.30;;
28862;SDS011;15994;51.796;13.006;2023-03-15T07:37:27;13.43;;;2.70;;
28862;SDS011;15994;51.796;13.006;2023-03-15T07:39:53;17.73;;;3.15;;
28862;SDS011;15994;51.796;13.006;2023-03-15T07:42:20;14.68;;;2.80;;
28862;SDS011;15994;51.796;13.006;2023-03-15T07:44:46;16.77;;;3.00;;
28862;SDS011;15994;51.796;13.006;2023-03-15T07:47:13;14.27;;;3.30;;
28862;SDS011;15994;51.796;13.006;2023-03-15T07:49:39;13.25;;;2.75;;
28862;SDS011;15994;51.796;13.006;2023-03-15T07:52:06;13.85;;;3.00;;
28862;SDS011;15994;51.796;13.006;2023-03-15T07:54:33;14.48;;;2.85;;
28862;SDS011;15994;51.796;13.006;2023-03-15T07:57:00;13.27;;;3.22;;
28862;SDS011;15994;51.796;13.006;2023-03-15T07:59:26;15.95;;;3.42;;
28862;SDS011;15994;51.796;13.006;2023-03-15T08:01:53;14.85;;;3.30;;
28862;SDS011;15994;51.796;13.006;2023-03-15T08:04:19;13.45;;;2.83;;
28862;SDS011;15994;51.796;13.006;2023-03-15T08:06:46;10.27;;;3.05;;
28862;SDS011;15994;51.796;13.006;2023-03-15T08:09:12;13.48;;;3.65;;
28862;SDS011;15994;51.796;13.006;2023-03-15T08:11:39;15.68;;;3.40;;
28862;SDS011;15994;51.796;13.006;2023-03-15T08:14:05;14.95;;;3.72;;
28862;SDS011;15994;51.796;13.006;2023-03-15T08:16:32;20.15;;;4.13;;
28862;SDS011;15994;51.796;13.006;2023-03-15T08:18:58;14.90;;;4.10;;
28862;SDS011;15994;51.796;13.006;2023-03-15T08:21:25;10.23;;;3.40;;
28862;SDS011;15994;51.796;13.006;2023-03-15T08:23:51;12.18;;;3.42;;
28862;SDS011;15994;51.796;13.006;2023-03-15T08:26:18;10.85;;;3.42;;
28862;SDS011;15994;51.796;13.006;2023-03-15T08:28:44;15.43;;;3.90;;
28862;SDS011;15994;51.796;13.006;2023-03-15T08:31:11;11.02;;;3.78;;
28862;SDS011;15994;51.796;13.006;2023-03-15T08:33:38;9.00;;;3.83;;
28862;SDS011;15994;51.796;13.006;2023-03-15T08:36:05;11.73;;;3.97;;
28862;SDS011;15994;51.796;13.006;2023-03-15T08:38:32;11.75;;;3.92;;
28862;SDS011;15994;51.796;13.006;2023-03-15T08:40:58;11.20;;;4.15;;
28862;SDS011;15994;51.796;13.006;2023-03-15T08:43:25;11.82;;;3.78;;
28862;SDS011;15994;51.796;13.006;2023-03-15T08:45:52;11.48;;;3.80;;
28862;SDS011;15994;51.796;13.006;2023-03-15T08:48:18;10.45;;;3.53;;
28862;SDS011;15994;51.796;13.006;2023-03-15T08:50:45;8.18;;;3.75;;
28862;SDS011;15994;51.796;13.006;2023-03-15T08:53:11;8.32;;;3.90;;
28862;SDS011;15994;51.796;13.006;2023-03-15T08:55:38;7.30;;;3.65;;
28862;SDS011;15994;51.796;13.006;2023-03-15T08:58:04;11.05;;;3.88;;
28862;SDS011;15994;51.796;13.006;2023-03-15T09:00:31;11.27;;;4.30;;
28862;SDS011;15994;51.796;13.006;2023-03-15T09:02:57;11.85;;;4.13;;
28862;SDS011;15994;51.796;13.006;2023-03-15T09:05:24;9.32;;;4.10;;
28862;SDS011;15994;51.796;13.006;2023-03-15T09:07:51;13.65;;;4.13;;
28862;SDS011;15994;51.796;13.006;2023-03-15T09:10:18;11.02;;;4.50;;
28862;SDS011;15994;51.796;13.006;2023-03-15T09:12:46;11.48;;;4.78;;
28862;SDS011;15994;51.796;13.006;2023-03-15T09:15:16;14.25;;;5.20;;
28862;SDS011;15994;51.796;13.006;2023-03-15T09:17:43;14.13;;;5.22;;
28862;SDS011;15994;51.796;13.006;2023-03-15T09:20:10;14.27;;;5.57;;
28862;SDS011;15994;51.796;13.006;2023-03-15T09:22:41;13.95;;;5.40;;
28862;SDS011;15994;51.796;13.006;2023-03-15T09:25:08;12.63;;;5.50;;
28862;SDS011;15994;51.796;13.006;2023-03-15T09:27:35;17.23;;;6.20;;
28862;SDS011;15994;51.796;13.006;2023-03-15T09:30:02;16.30;;;6.68;;
28862;SDS011;15994;51.796;13.006;2023-03-15T09:32:29;15.98;;;7.65;;
28862;SDS011;15994;51.796;13.006;2023-03-15T09:34:59;15.10;;;6.78;;
28862;SDS011;15994;51.796;13.006;2023-03-15T09:37:29;13.30;;;5.75;;
28862;SDS011;15994;51.796;13.006;2023-03-15T09:39:56;16.35;;;5.50;;
28862;SDS011;15994;51.796;13.006;2023-03-15T09:45:26;17.35;;;6.13;;
28862;SDS011;15994;51.796;13.006;2023-03-15T09:48:12;15.52;;;6.03;;
28862;SDS011;15994;51.796;13.006;2023-03-15T09:53:18;14.57;;;5.38;;
28862;SDS011;15994;51.796;13.006;2023-03-15T09:55:49;14.05;;;4.90;;
28862;SDS011;15994;51.796;13.006;2023-03-15T09:58:29;12.05;;;4.85;;
28862;SDS011;15994;51.796;13.006;2023-03-15T10:01:00;12.93;;;5.80;;
28862;SDS011;15994;51.796;13.006;2023-03-15T10:03:34;11.82;;;5.25;;
28862;SDS011;15994;51.796;13.006;2023-03-15T10:06:18;16.80;;;6.10;;
28862;SDS011;15994;51.796;13.006;2023-03-15T10:08:53;16.45;;;6.43;;
28862;SDS011;15994;51.796;13.006;2023-03-15T10:16:52;14.88;;;6.75;;
28862;SDS011;15994;51.796;13.006;2023-03-15T10:19:31;16.48;;;6.60;;
28862;SDS011;15994;51.796;13.006;2023-03-15T10:22:22;15.38;;;7.18;;
28862;SDS011;15994;51.796;13.006;2023-03-15T10:30:47;16.58;;;7.57;;
28862;SDS011;15994;51.796;13.006;2023-03-15T10:33:18;12.02;;;7.10;;
28862;SDS011;15994;51.796;13.006;2023-03-15T10:35:54;18.35;;;6.80;;
28862;SDS011;15994;51.796;13.006;2023-03-15T10:38:22;12.05;;;6.53;;
28862;SDS011;15994;51.796;13.006;2023-03-15T10:40:51;14.20;;;6.57;;
28862;SDS011;15994;51.796;13.006;2023-03-15T10:43:21;13.63;;;6.90;;
28862;SDS011;15994;51.796;13.006;2023-03-15T10:46:01;12.50;;;6.72;;
28862;SDS011;15994;51.796;13.006;2023-03-15T10:48:39;14.02;;;6.35;;
28862;SDS011;15994;51.796;13.006;2023-03-15T10:53:59;12.65;;;6.07;;
28862;SDS011;15994;51.796;13.006;2023-03-15T10:56:36;12.70;;;6.43;;
28862;SDS011;15994;51.796;13.006;2023-03-15T10:59:13;10.75;;;5.53;;
28862;SDS011;15994;51.796;13.006;2023-03-15T11:01:42;9.52;;;5.60;;
28862;SDS011;15994;51.796;13.006;2023-03-15T11:04:14;12.70;;;5.30;;
28862;SDS011;15994;51.796;13.006;2023-03-15T11:09:22;8.38;;;2.90;;
28862;SDS011;15994;51.796;13.006;2023-03-15T11:14:23;6.93;;;3.10;;
28862;SDS011;15994;51.796;13.006;2023-03-15T11:16:53;6.85;;;2.90;;
28862;SDS011;15994;51.796;13.006;2023-03-15T11:19:27;5.90;;;2.67;;
28862;SDS011;15994;51.796;13.006;2023-03-15T11:21:57;7.60;;;2.70;;
28862;SDS011;15994;51.796;13.006;2023-03-15T11:24:27;9.25;;;2.58;;
28862;SDS011;15994;51.796;13.006;2023-03-15T11:26:57;6.95;;;2.72;;
28862;SDS011;15994;51.796;13.006;2023-03-15T11:29:30;7.00;;;2.55;;
28862;SDS011;15994;51.796;13.006;2023-03-15T11:31:59;5.63;;;2.20;;
28862;SDS011;15994;51.796;13.006;2023-03-15T11:37:21;6.38;;;2.25;;
28862;SDS011;15994;51.796;13.006;2023-03-15T11:39:56;6.05;;;1.95;;
28862;SDS011;15994;51.796;13.006;2023-03-15T11:42:36;5.28;;;2.30;;
28862;SDS011;15994;51.796;13.006;2023-03-15T11:45:22;8.85;;;2.20;;
28862;SDS011;15994;51.796;13.006;2023-03-15T11:47:52;5.60;;;2.13;;
28862;SDS011;15994;51.796;13.006;2023-03-15T11:50:21;6.03;;;2.30;;
28862;SDS011;15994;51.796;13.006;2023-03-15T11:52:48;7.40;;;3.20;;
28862;SDS011;15994;51.796;13.006;2023-03-15T11:55:21;6.75;;;2.88;;
28862;SDS011;15994;51.796;13.006;2023-03-15T11:57:50;8.40;;;2.70;;
28862;SDS011;15994;51.796;13.006;2023-03-15T12:02:59;7.78;;;3.00;;
28862;SDS011;15994;51.796;13.006;2023-03-15T12:05:58;6.85;;;2.75;;
28862;SDS011;15994;51.796;13.006;2023-03-15T12:10:58;7.45;;;2.45;;
28862;SDS011;15994;51.796;13.006;2023-03-15T12:13:29;5.60;;;2.22;;
28862;SDS011;15994;51.796;13.006;2023-03-15T12:15:57;4.85;;;2.63;;
28862;SDS011;15994;51.796;13.006;2023-03-15T12:18:28;6.63;;;2.70;;
28862;SDS011;15994;51.796;13.006;2023-03-15T12:21:05;5.55;;;2.30;;
28862;SDS011;15994;51.796;13.006;2023-03-15T12:23:37;6.75;;;2.40;;
28862;SDS011;15994;51.796;13.006;2023-03-15T12:26:24;6.95;;;2.63;;
28862;SDS011;15994;51.796;13.006;2023-03-15T12:34:25;4.38;;;2.42;;
28862;SDS011;15994;51.796;13.006;2023-03-15T12:36:58;5.35;;;2.20;;
28862;SDS011;15994;51.796;13.006;2023-03-15T12:42:03;3.92;;;2.10;;
28862;SDS011;15994;51.796;13.006;2023-03-15T12:46:57;6.57;;;2.10;;
28862;SDS011;15994;51.796;13.006;2023-03-15T12:49:32;4.75;;;2.10;;
28862;SDS011;15994;51.796;13.006;2023-03-15T12:57:49;6.57;;;2.55;;
28862;SDS011;15994;51.796;13.006;2023-03-15T13:00:21;7.47;;;2.83;;
28862;SDS011;15994;51.796;13.006;2023-03-15T13:02:53;8.60;;;2.90;;
28862;SDS011;15994;51.796;13.006;2023-03-15T13:05:24;5.15;;;2.60;;
28862;SDS011;15994;51.796;13.006;2023-03-15T13:07:56;5.00;;;2.42;;
28862;SDS011;15994;51.796;13.006;2023-03-15T13:13:06;4.93;;;1.90;;
28862;SDS011;15994;51.796;13.006;2023-03-15T13:19:13;5.53;;;1.50;;
28862;SDS011;15994;51.796;13.006;2023-03-15T13:24:35;3.00;;;1.48;;
28862;SDS011;15994;51.796;13.006;2023-03-15T13:27:19;4.15;;;1.70;;
28862;SDS011;15994;51.796;13.006;2023-03-15T13:41:02;6.68;;;1.35;;
28862;SDS011;15994;51.796;13.006;2023-03-15T13:43:31;6.10;;;1.55;;
28862;SDS011;15994;51.796;13.006;2023-03-15T13:46:03;5.05;;;1.70;;
28862;SDS011;15994;51.796;13.006;2023-03-15T13:48:32;7.90;;;2.17;;
28862;SDS011;15994;51.796;13.006;2023-03-15T13:51:01;5.00;;;1.85;;
28862;SDS011;15994;51.796;13.006;2023-03-15T13:53:38;7.38;;;1.98;;
28862;SDS011;15994;51.796;13.006;2023-03-15T13:56:05;5.15;;;2.08;;
28862;SDS011;15994;51.796;13.006;2023-03-15T13:58:35;5.57;;;1.90;;
28862;SDS011;15994;51.796;13.006;2023-03-15T14:01:04;6.15;;;1.60;;
28862;SDS011;15994;51.796;13.006;2023-03-15T14:03:34;4.40;;;1.83;;
28862;SDS011;15994;51.796;13.006;2023-03-15T14:06:01;6.20;;;2.20;;
28862;SDS011;15994;51.796;13.006;2023-03-15T14:08:29;5.65;;;1.92;;
28862;SDS011;15994;51.796;13.006;2023-03-15T14:11:01;5.18;;;1.63;;
28862;SDS011;15994;51.796;13.006;2023-03-15T14:16:42;6.65;;;2.03;;
28862;SDS011;15994;51.796;13.006;2023-03-15T14:19:13;6.95;;;1.83;;
28862;SDS011;15994;51.796;13.006;2023-03-15T14:21:42;5.40;;;1.83;;
28862;SDS011;15994;51.796;13.006;2023-03-15T14:24:14;6.80;;;1.73;;
28862;SDS011;15994;51.796;13.006;2023-03-15T14:26:52;7.10;;;1.50;;
28862;SDS011;15994;51.796;13.006;2023-03-15T14:29:22;6.75;;;1.80;;
28862;SDS011;15994;51.796;13.006;2023-03-15T14:31:57;5.40;;;1.38;;
28862;SDS011;15994;51.796;13.006;2023-03-15T14:34:32;5.22;;;1.40;;
28862;SDS011;15994;51.796;13.006;2023-03-15T14:39:31;10.02;;;1.60;;
28862;SDS011;15994;51.796;13.006;2023-03-15T14:42:04;7.00;;;1.65;;
28862;SDS011;15994;51.796;13.006;2023-03-15T14:44:31;10.02;;;1.55;;
28862;SDS011;15994;51.796;13.006;2023-03-15T14:46:58;5.28;;;1.42;;
28862;SDS011;15994;51.796;13.006;2023-03-15T14:49:25;8.50;;;1.52;;
28862;SDS011;15994;51.796;13.006;2023-03-15T14:52:00;8.80;;;1.73;;
28862;SDS011;15994;51.796;13.006;2023-03-15T14:54:29;9.35;;;1.60;;
28862;SDS011;15994;51.796;13.006;2023-03-15T14:56:57;7.47;;;1.45;;
28862;SDS011;15994;51.796;13.006;2023-03-15T14:59:24;8.00;;;1.83;;
28862;SDS011;15994;51.796;13.006;2023-03-15T15:01:55;6.60;;;1.95;;
28862;SDS011;15994;51.796;13.006;2023-03-15T15:04:25;7.45;;;1.80;;
28862;SDS011;15994;51.796;13.006;2023-03-15T15:06:57;7.13;;;2.05;;
28862;SDS011;15994;51.796;13.006;2023-03-15T15:09:25;8.02;;;1.60;;
28862;SDS011;15994;51.796;13.006;2023-03-15T15:11:53;7.50;;;1.75;;
28862;SDS011;15994;51.796;13.006;2023-03-15T15:14:19;8.50;;;1.80;;
28862;SDS011;15994;51.796;13.006;2023-03-15T15:16:46;4.88;;;1.90;;
28862;SDS011;15994;51.796;13.006;2023-03-15T15:19:13;8.05;;;1.73;;
28862;SDS011;15994;51.796;13.006;2023-03-15T15:21:41;9.48;;;2.00;;
28862;SDS011;15994;51.796;13.006;2023-03-15T15:24:13;7.65;;;1.70;;
28862;SDS011;15994;51.796;13.006;2023-03-15T15:26:42;7.05;;;1.80;;
28862;SDS011;15994;51.796;13.006;2023-03-15T15:29:12;8.38;;;2.20;;
28862;SDS011;15994;51.796;13.006;2023-03-15T15:31:40;5.95;;;1.70;;
28862;SDS011;15994;51.796;13.006;2023-03-15T15:34:08;6.65;;;2.97;;
28862;SDS011;15994;51.796;13.006;2023-03-15T15:36:37;6.28;;;1.40;;
28862;SDS011;15994;51.796;13.006;2023-03-15T15:39:17;6.97;;;1.60;;
28862;SDS011;15994;51.796;13.006;2023-03-15T15:41:50;6.55;;;1.85;;
28862;SDS011;15994;51.796;13.006;2023-03-15T15:44:18;8.13;;;2.10;;
28862;SDS011;15994;51.796;13.006;2023-03-15T15:46:46;8.20;;;2.30;;
28862;SDS011;15994;51.796;13.006;2023-03-15T15:49:12;5.82;;;1.75;;
28862;SDS011;15994;51.796;13.006;2023-03-15T15:51:40;6.78;;;1.70;;
28862;SDS011;15994;51.796;13.006;2023-03-15T15:54:13;6.60;;;1.52;;
28862;SDS011;15994;51.796;13.006;2023-03-15T15:56:49;6.05;;;1.58;;
28862;SDS011;15994;51.796;13.006;2023-03-15T15:59:18;5.90;;;1.67;;
28862;SDS011;15994;51.796;13.006;2023-03-15T16:01:46;5.70;;;1.27;;